sensor_id;sensor_type;location;lat;lon;timestamp;temperature;humidity
51655;DHT22;37732;53.106;7.030;2023-05-07T00:01:31;11.60;99.90
51655;DHT22;37732;53.106;7.030;2023-05-07T00:03:57;11.60;99.90
51655;DHT22;37732;53.106;7.030;2023-05-07T00:06:23;11.60;99.90
51655;DHT22;37732;53.106;7.030;2023-05-07T00:08:49;11.60;99.90
51655;DHT22;37732;53.106;7.030;2023-05-07T00:11:15;11.60;99.90
51655;DHT22;37732;53.106;7.030;2023-05-07T00:13:41;11.50;99.90
51655;DHT22;37732;53.106;7.030;2023-05-07T00:16:06;11.60;99.90
51655;DHT22;37732;53.106;7.030;2023-05-07T00:18:32;11.50;99.90
51655;DHT22;37732;53.106;7.030;2023-05-07T00:20:58;11.60;99.90
51655;DHT22;37732;53.106;7.030;2023-05-07T00:23:23;11.50;99.90
51655;DHT22;37732;53.106;7.030;2023-05-07T00:25:49;11.50;99.90
51655;DHT22;37732;53.106;7.030;2023-05-07T00:28:15;11.50;99.90
51655;DHT22;37732;53.106;7.030;2023-05-07T00:30:40;11.50;99.90
51655;DHT22;37732;53.106;7.030;2023-05-07T00:33:06;11.50;99.90
51655;DHT22;37732;53.106;7.030;2023-05-07T00:35:32;11.50;99.90
51655;DHT22;37732;53.106;7.030;2023-05-07T00:37:58;11.50;99.90
51655;DHT22;37732;53.106;7.030;2023-05-07T00:40:24;11.50;99.90
51655;DHT22;37732;53.106;7.030;2023-05-07T00:42:50;11.50;99.90
51655;DHT22;37732;53.106;7.030;2023-05-07T00:45:16;11.50;99.90
51655;DHT22;37732;53.106;7.030;2023-05-07T00:47:42;11.40;99.90
51655;DHT22;37732;53.106;7.030;2023-05-07T00:50:09;11.40;99.90
51655;DHT22;37732;53.106;7.030;2023-05-07T00:52:38;11.40;99.90
51655;DHT22;37732;53.106;7.030;2023-05-07T00:55:05;11.40;99.90
51655;DHT22;37732;53.106;7.030;2023-05-07T00:57:40;11.40;99.90
51655;DHT22;37732;53.106;7.030;2023-05-07T01:00:07;11.40;99.90
51655;DHT22;37732;53.106;7.030;2023-05-07T01:03:00;11.40;99.90
51655;DHT22;37732;53.106;7.030;2023-05-07T01:05:26;11.30;99.90
51655;DHT22;37732;53.106;7.030;2023-05-07T01:07:54;11.40;99.90
51655;DHT22;37732;53.106;7.030;2023-05-07T01:10:21;11.40;99.90
51655;DHT22;37732;53.106;7.030;2023-05-07T01:12:48;11.40;99.90
51655;DHT22;37732;53.106;7.030;2023-05-07T01:15:14;11.40;99.90
51655;DHT22;37732;53.106;7.030;2023-05-07T01:17:41;11.30;99.90
51655;DHT22;37732;53.106;7.030;2023-05-07T01:20:08;11.30;99.90
51655;DHT22;37732;53.106;7.030;2023-05-07T01:22:39;11.40;99.90
51655;DHT22;37732;53.106;7.030;2023-05-07T01:25:07;11.30;99.90
51655;DHT22;37732;53.106;7.030;2023-05-07T01:27:33;11.30;99.90
51655;DHT22;37732;53.106;7.030;2023-05-07T01:30:00;11.30;99.90
51655;DHT22;37732;53.106;7.030;2023-05-07T01:32:42;11.30;99.90
51655;DHT22;37732;53.106;7.030;2023-05-07T01:35:11;11.40;99.90
51655;DHT22;37732;53.106;7.030;2023-05-07T01:37:39;11.30;99.90
51655;DHT22;37732;53.106;7.030;2023-05-07T01:40:05;11.30;99.90
51655;DHT22;37732;53.106;7.030;2023-05-07T01:42:33;11.30;99.90
51655;DHT22;37732;53.106;7.030;2023-05-07T01:44:58;11.30;99.90
51655;DHT22;37732;53.106;7.030;2023-05-07T01:47:25;11.30;99.90
51655;DHT22;37732;53.106;7.030;2023-05-07T01:49:52;11.30;99.90
51655;DHT22;37732;53.106;7.030;2023-05-07T01:52:18;11.30;99.90
51655;DHT22;37732;53.106;7.030;2023-05-07T01:54:44;11.30;99.90
51655;DHT22;37732;53.106;7.030;2023-05-07T01:57:10;11.20;99.90
51655;DHT22;37732;53.106;7.030;2023-05-07T01:59:35;11.20;99.90
51655;DHT22;37732;53.106;7.030;2023-05-07T02:02:01;11.20;99.90
51655;DHT22;37732;53.106;7.030;2023-05-07T02:04:27;11.20;99.90
51655;DHT22;37732;53.106;7.030;2023-05-07T02:06:52;11.20;99.90
51655;DHT22;37732;53.106;7.030;2023-05-07T02:09:18;11.20;99.90
51655;DHT22;37732;53.106;7.030;2023-05-07T02:11:44;11.20;99.90
51655;DHT22;37732;53.106;7.030;2023-05-07T02:14:11;11.20;99.90
51655;DHT22;37732;53.106;7.030;2023-05-07T02:16:37;11.20;99.90
51655;DHT22;37732;53.106;7.030;2023-05-07T02:19:02;11.10;99.90
51655;DHT22;37732;53.106;7.030;2023-05-07T02:21:28;11.10;99.90
51655;DHT22;37732;53.106;7.030;2023-05-07T02:23:54;11.10;99.90
51655;DHT22;37732;53.106;7.030;2023-05-07T02:26:20;11.10;99.90
51655;DHT22;37732;53.106;7.030;2023-05-07T02:28:46;11.10;99.90
51655;DHT22;37732;53.106;7.030;2023-05-07T02:31:12;11.00;99.90
51655;DHT22;37732;53.106;7.030;2023-05-07T02:33:38;11.00;99.90
51655;DHT22;37732;53.106;7.030;2023-05-07T02:36:10;11.00;99.90
51655;DHT22;37732;53.106;7.030;2023-05-07T02:38:36;11.00;99.90
51655;DHT22;37732;53.106;7.030;2023-05-07T02:41:02;11.00;99.90
51655;DHT22;37732;53.106;7.030;2023-05-07T02:43:28;11.00;99.90
51655;DHT22;37732;53.106;7.030;2023-05-07T02:46:05;11.00;99.90
51655;DHT22;37732;53.106;7.030;2023-05-07T02:48:31;11.00;99.90
51655;DHT22;37732;53.106;7.030;2023-05-07T02:50:57;10.90;99.90
51655;DHT22;37732;53.106;7.030;2023-05-07T02:53:24;10.90;99.90
51655;DHT22;37732;53.106;7.030;2023-05-07T02:55:56;10.90;99.90
51655;DHT22;37732;53.106;7.030;2023-05-07T02:58:22;10.90;99.90
51655;DHT22;37732;53.106;7.030;2023-05-07T03:00:48;10.90;99.90
51655;DHT22;37732;53.106;7.030;2023-05-07T03:03:14;10.80;99.90
51655;DHT22;37732;53.106;7.030;2023-05-07T03:05:40;10.80;99.90
51655;DHT22;37732;53.106;7.030;2023-05-07T03:08:06;10.80;99.90
51655;DHT22;37732;53.106;7.030;2023-05-07T03:10:32;10.80;99.90
51655;DHT22;37732;53.106;7.030;2023-05-07T03:12:58;10.80;99.90
51655;DHT22;37732;53.106;7.030;2023-05-07T03:15:23;10.80;99.90
51655;DHT22;37732;53.106;7.030;2023-05-07T03:17:49;10.80;99.90
51655;DHT22;37732;53.106;7.030;2023-05-07T03:20:15;10.80;99.90
51655;DHT22;37732;53.106;7.030;2023-05-07T03:22:41;10.80;99.90
51655;DHT22;37732;53.106;7.030;2023-05-07T03:25:08;10.80;99.90
51655;DHT22;37732;53.106;7.030;2023-05-07T03:27:34;10.80;99.90
51655;DHT22;37732;53.106;7.030;2023-05-07T03:30:00;10.70;99.90
51655;DHT22;37732;53.106;7.030;2023-05-07T03:32:26;10.70;99.90
51655;DHT22;37732;53.106;7.030;2023-05-07T03:34:51;10.60;99.90
51655;DHT22;37732;53.106;7.030;2023-05-07T03:37:17;10.60;99.90
51655;DHT22;37732;53.106;7.030;2023-05-07T03:39:43;10.60;99.90
51655;DHT22;37732;53.106;7.030;2023-05-07T03:42:09;10.60;99.90
51655;DHT22;37732;53.106;7.030;2023-05-07T03:44:35;10.60;99.90
51655;DHT22;37732;53.106;7.030;2023-05-07T03:47:02;10.50;99.90
51655;DHT22;37732;53.106;7.030;2023-05-07T03:49:28;10.50;99.90
51655;DHT22;37732;53.106;7.030;2023-05-07T03:51:54;10.60;99.90
51655;DHT22;37732;53.106;7.030;2023-05-07T03:54:19;10.50;99.90
51655;DHT22;37732;53.106;7.030;2023-05-07T03:56:45;10.50;99.90
51655;DHT22;37732;53.106;7.030;2023-05-07T03:59:12;10.50;99.90
51655;DHT22;37732;53.106;7.030;2023-05-07T04:01:38;10.50;99.90
51655;DHT22;37732;53.106;7.030;2023-05-07T04:04:04;10.50;99.90
51655;DHT22;37732;53.106;7.030;2023-05-07T04:06:30;10.50;99.90
51655;DHT22;37732;53.106;7.030;2023-05-07T04:08:57;10.50;99.90
51655;DHT22;37732;53.106;7.030;2023-05-07T04:11:22;10.50;99.90
51655;DHT22;37732;53.106;7.030;2023-05-07T04:13:48;10.50;99.90
51655;DHT22;37732;53.106;7.030;2023-05-07T04:16:14;10.50;99.90
51655;DHT22;37732;53.106;7.030;2023-05-07T04:18:40;10.50;99.90
51655;DHT22;37732;53.106;7.030;2023-05-07T04:21:17;10.50;99.90
51655;DHT22;37732;53.106;7.030;2023-05-07T04:23:43;10.50;99.90
51655;DHT22;37732;53.106;7.030;2023-05-07T04:26:09;10.50;99.90
51655;DHT22;37732;53.106;7.030;2023-05-07T04:28:35;10.50;99.90
51655;DHT22;37732;53.106;7.030;2023-05-07T04:31:01;10.40;99.90
51655;DHT22;37732;53.106;7.030;2023-05-07T04:33:26;10.40;99.90
51655;DHT22;37732;53.106;7.030;2023-05-07T04:35:52;10.40;99.90
51655;DHT22;37732;53.106;7.030;2023-05-07T04:38:18;10.40;99.90
51655;DHT22;37732;53.106;7.030;2023-05-07T04:40:44;10.40;99.90
51655;DHT22;37732;53.106;7.030;2023-05-07T04:43:10;10.40;99.90
51655;DHT22;37732;53.106;7.030;2023-05-07T04:45:36;10.40;99.90
51655;DHT22;37732;53.106;7.030;2023-05-07T04:48:02;10.40;99.90
51655;DHT22;37732;53.106;7.030;2023-05-07T04:50:28;10.40;99.90
51655;DHT22;37732;53.106;7.030;2023-05-07T04:52:53;10.40;99.90
51655;DHT22;37732;53.106;7.030;2023-05-07T04:55:19;10.40;99.90
51655;DHT22;37732;53.106;7.030;2023-05-07T04:57:45;10.40;99.90
51655;DHT22;37732;53.106;7.030;2023-05-07T05:00:11;10.40;99.90
51655;DHT22;37732;53.106;7.030;2023-05-07T05:02:40;10.40;99.90
51655;DHT22;37732;53.106;7.030;2023-05-07T05:05:06;10.40;99.90
51655;DHT22;37732;53.106;7.030;2023-05-07T05:07:33;10.40;99.90
51655;DHT22;37732;53.106;7.030;2023-05-07T05:09:58;10.40;99.90
51655;DHT22;37732;53.106;7.030;2023-05-07T05:12:24;10.40;99.90
51655;DHT22;37732;53.106;7.030;2023-05-07T05:14:50;10.40;99.90
51655;DHT22;37732;53.106;7.030;2023-05-07T05:17:16;10.40;99.90
51655;DHT22;37732;53.106;7.030;2023-05-07T05:19:42;10.40;99.90
51655;DHT22;37732;53.106;7.030;2023-05-07T05:22:07;10.40;99.90
51655;DHT22;37732;53.106;7.030;2023-05-07T05:24:33;10.40;99.90
51655;DHT22;37732;53.106;7.030;2023-05-07T05:26:59;10.40;99.90
51655;DHT22;37732;53.106;7.030;2023-05-07T05:29:26;10.40;99.90
51655;DHT22;37732;53.106;7.030;2023-05-07T05:31:52;10.40;99.90
51655;DHT22;37732;53.106;7.030;2023-05-07T05:34:18;10.40;99.90
51655;DHT22;37732;53.106;7.030;2023-05-07T05:36:45;10.50;99.90
51655;DHT22;37732;53.106;7.030;2023-05-07T05:39:11;10.50;99.90
51655;DHT22;37732;53.106;7.030;2023-05-07T05:41:36;10.40;99.90
51655;DHT22;37732;53.106;7.030;2023-05-07T05:44:02;10.50;99.90
51655;DHT22;37732;53.106;7.030;2023-05-07T05:46:28;10.50;99.90
51655;DHT22;37732;53.106;7.030;2023-05-07T05:48:54;10.50;99.90
51655;DHT22;37732;53.106;7.030;2023-05-07T05:51:21;10.50;99.90
51655;DHT22;37732;53.106;7.030;2023-05-07T05:53:47;10.50;99.90
51655;DHT22;37732;53.106;7.030;2023-05-07T05:56:13;10.50;99.90
51655;DHT22;37732;53.106;7.030;2023-05-07T05:58:38;10.50;99.90
51655;DHT22;37732;53.106;7.030;2023-05-07T06:01:04;10.50;99.90
51655;DHT22;37732;53.106;7.030;2023-05-07T06:03:31;10.60;99.90
51655;DHT22;37732;53.106;7.030;2023-05-07T06:05:57;10.50;99.90
51655;DHT22;37732;53.106;7.030;2023-05-07T06:08:23;10.50;99.90
51655;DHT22;37732;53.106;7.030;2023-05-07T06:10:49;10.50;99.90
51655;DHT22;37732;53.106;7.030;2023-05-07T06:13:15;10.60;99.90
51655;DHT22;37732;53.106;7.030;2023-05-07T06:15:41;10.60;99.90
51655;DHT22;37732;53.106;7.030;2023-05-07T06:18:07;10.60;99.90
51655;DHT22;37732;53.106;7.030;2023-05-07T06:20:32;10.60;99.90
51655;DHT22;37732;53.106;7.030;2023-05-07T06:22:58;10.60;99.90
51655;DHT22;37732;53.106;7.030;2023-05-07T06:25:24;10.70;99.90
51655;DHT22;37732;53.106;7.030;2023-05-07T06:27:49;10.60;99.90
51655;DHT22;37732;53.106;7.030;2023-05-07T06:30:15;10.60;99.90
51655;DHT22;37732;53.106;7.030;2023-05-07T06:32:41;10.60;99.90
51655;DHT22;37732;53.106;7.030;2023-05-07T06:35:07;10.70;99.90
51655;DHT22;37732;53.106;7.030;2023-05-07T06:37:33;10.60;99.90
51655;DHT22;37732;53.106;7.030;2023-05-07T06:39:58;10.70;99.90
51655;DHT22;37732;53.106;7.030;2023-05-07T06:42:24;10.70;99.90
51655;DHT22;37732;53.106;7.030;2023-05-07T06:44:50;10.70;99.90
51655;DHT22;37732;53.106;7.030;2023-05-07T06:47:16;10.70;99.90
51655;DHT22;37732;53.106;7.030;2023-05-07T06:49:42;10.80;99.90
51655;DHT22;37732;53.106;7.030;2023-05-07T06:52:07;10.80;99.90
51655;DHT22;37732;53.106;7.030;2023-05-07T06:54:33;10.80;99.90
51655;DHT22;37732;53.106;7.030;2023-05-07T06:56:58;10.80;99.90
51655;DHT22;37732;53.106;7.030;2023-05-07T06:59:25;10.90;99.90
51655;DHT22;37732;53.106;7.030;2023-05-07T07:01:50;10.90;99.90
51655;DHT22;37732;53.106;7.030;2023-05-07T07:04:16;10.90;99.90
51655;DHT22;37732;53.106;7.030;2023-05-07T07:06:42;10.90;99.90
51655;DHT22;37732;53.106;7.030;2023-05-07T07:09:07;10.90;99.90
51655;DHT22;37732;53.106;7.030;2023-05-07T07:11:33;10.90;99.90
51655;DHT22;37732;53.106;7.030;2023-05-07T07:13:58;10.90;99.90
51655;DHT22;37732;53.106;7.030;2023-05-07T07:16:24;11.00;99.90
51655;DHT22;37732;53.106;7.030;2023-05-07T07:18:50;11.00;99.90
51655;DHT22;37732;53.106;7.030;2023-05-07T07:21:16;11.10;99.90
51655;DHT22;37732;53.106;7.030;2023-05-07T07:23:42;11.10;99.90
51655;DHT22;37732;53.106;7.030;2023-05-07T07:26:07;11.20;99.90
51655;DHT22;37732;53.106;7.030;2023-05-07T07:28:33;11.20;99.90
51655;DHT22;37732;53.106;7.030;2023-05-07T07:30:59;11.20;99.90
51655;DHT22;37732;53.106;7.030;2023-05-07T07:33:25;11.30;99.90
51655;DHT22;37732;53.106;7.030;2023-05-07T07:35:51;11.30;99.90
51655;DHT22;37732;53.106;7.030;2023-05-07T07:38:16;11.40;99.90
51655;DHT22;37732;53.106;7.030;2023-05-07T07:40:42;11.40;99.90
51655;DHT22;37732;53.106;7.030;2023-05-07T07:43:09;11.50;99.90
51655;DHT22;37732;53.106;7.030;2023-05-07T07:45:35;11.50;99.90
51655;DHT22;37732;53.106;7.030;2023-05-07T07:48:00;11.60;99.90
51655;DHT22;37732;53.106;7.030;2023-05-07T07:50:26;11.60;99.90
51655;DHT22;37732;53.106;7.030;2023-05-07T07:52:52;11.70;99.90
51655;DHT22;37732;53.106;7.030;2023-05-07T07:55:20;11.70;99.90
51655;DHT22;37732;53.106;7.030;2023-05-07T07:57:48;11.70;99.90
51655;DHT22;37732;53.106;7.030;2023-05-07T08:00:15;11.70;99.90
51655;DHT22;37732;53.106;7.030;2023-05-07T08:02:41;11.80;99.90
51655;DHT22;37732;53.106;7.030;2023-05-07T08:05:08;11.80;99.90
51655;DHT22;37732;53.106;7.030;2023-05-07T08:07:33;11.90;99.90
51655;DHT22;37732;53.106;7.030;2023-05-07T08:09:59;11.90;99.90
51655;DHT22;37732;53.106;7.030;2023-05-07T08:12:25;11.90;99.90
51655;DHT22;37732;53.106;7.030;2023-05-07T08:14:50;11.90;99.90
51655;DHT22;37732;53.106;7.030;2023-05-07T08:17:16;11.90;99.90
51655;DHT22;37732;53.106;7.030;2023-05-07T08:19:43;12.00;99.90
51655;DHT22;37732;53.106;7.030;2023-05-07T08:22:11;12.00;99.90
51655;DHT22;37732;53.106;7.030;2023-05-07T08:24:37;12.00;99.90
51655;DHT22;37732;53.106;7.030;2023-05-07T08:27:02;12.00;99.90
51655;DHT22;37732;53.106;7.030;2023-05-07T08:29:28;12.10;99.90
51655;DHT22;37732;53.106;7.030;2023-05-07T08:31:54;12.10;99.90
51655;DHT22;37732;53.106;7.030;2023-05-07T08:34:22;12.20;99.90
51655;DHT22;37732;53.106;7.030;2023-05-07T08:36:48;12.20;99.90
51655;DHT22;37732;53.106;7.030;2023-05-07T08:39:16;12.30;99.90
51655;DHT22;37732;53.106;7.030;2023-05-07T08:41:45;12.30;99.90
51655;DHT22;37732;53.106;7.030;2023-05-07T08:44:14;12.40;99.90
51655;DHT22;37732;53.106;7.030;2023-05-07T08:46:41;12.40;99.90
51655;DHT22;37732;53.106;7.030;2023-05-07T08:49:09;12.40;99.90
51655;DHT22;37732;53.106;7.030;2023-05-07T08:51:35;12.40;99.90
51655;DHT22;37732;53.106;7.030;2023-05-07T08:54:01;12.50;99.90
51655;DHT22;37732;53.106;7.030;2023-05-07T08:56:27;12.60;99.90
51655;DHT22;37732;53.106;7.030;2023-05-07T08:58:53;12.80;99.90
51655;DHT22;37732;53.106;7.030;2023-05-07T09:01:24;12.90;99.90
51655;DHT22;37732;53.106;7.030;2023-05-07T09:03:52;13.00;99.90
51655;DHT22;37732;53.106;7.030;2023-05-07T09:06:18;13.00;99.90
51655;DHT22;37732;53.106;7.030;2023-05-07T09:08:51;13.00;99.90
51655;DHT22;37732;53.106;7.030;2023-05-07T09:11:19;13.00;99.90
51655;DHT22;37732;53.106;7.030;2023-05-07T09:13:46;13.10;99.90
51655;DHT22;37732;53.106;7.030;2023-05-07T09:16:12;13.20;99.90
51655;DHT22;37732;53.106;7.030;2023-05-07T09:18:44;13.20;99.90
51655;DHT22;37732;53.106;7.030;2023-05-07T09:21:11;13.20;99.90
51655;DHT22;37732;53.106;7.030;2023-05-07T09:23:40;13.30;99.90
51655;DHT22;37732;53.106;7.030;2023-05-07T09:26:07;13.40;99.90
51655;DHT22;37732;53.106;7.030;2023-05-07T09:28:38;13.40;99.90
51655;DHT22;37732;53.106;7.030;2023-05-07T09:31:05;13.60;99.90
51655;DHT22;37732;53.106;7.030;2023-05-07T09:33:31;13.70;99.90
51655;DHT22;37732;53.106;7.030;2023-05-07T09:35:56;13.80;99.90
51655;DHT22;37732;53.106;7.030;2023-05-07T09:38:22;13.90;99.90
51655;DHT22;37732;53.106;7.030;2023-05-07T09:41:10;13.90;99.90
51655;DHT22;37732;53.106;7.030;2023-05-07T09:43:37;13.90;99.90
51655;DHT22;37732;53.106;7.030;2023-05-07T09:46:11;13.90;99.90
51655;DHT22;37732;53.106;7.030;2023-05-07T09:48:42;14.00;99.90
51655;DHT22;37732;53.106;7.030;2023-05-07T09:54:17;14.30;99.90
51655;DHT22;37732;53.106;7.030;2023-05-07T09:56:44;14.50;99.90
51655;DHT22;37732;53.106;7.030;2023-05-07T09:59:13;14.70;99.90
51655;DHT22;37732;53.106;7.030;2023-05-07T10:01:41;14.80;99.90
51655;DHT22;37732;53.106;7.030;2023-05-07T10:04:07;14.80;99.90
51655;DHT22;37732;53.106;7.030;2023-05-07T10:06:36;14.70;99.90
51655;DHT22;37732;53.106;7.030;2023-05-07T10:09:03;14.70;99.90
51655;DHT22;37732;53.106;7.030;2023-05-07T10:11:32;14.60;99.90
51655;DHT22;37732;53.106;7.030;2023-05-07T10:13:59;14.60;99.90
51655;DHT22;37732;53.106;7.030;2023-05-07T10:16:28;14.60;99.90
51655;DHT22;37732;53.106;7.030;2023-05-07T10:18:58;14.50;99.90
51655;DHT22;37732;53.106;7.030;2023-05-07T10:21:23;14.50;99.90
51655;DHT22;37732;53.106;7.030;2023-05-07T10:24:20;14.40;99.90
51655;DHT22;37732;53.106;7.030;2023-05-07T10:26:49;14.50;99.90
51655;DHT22;37732;53.106;7.030;2023-05-07T10:34:54;15.10;99.90
51655;DHT22;37732;53.106;7.030;2023-05-07T10:37:21;15.20;99.90
51655;DHT22;37732;53.106;7.030;2023-05-07T10:39:47;15.20;99.90
51655;DHT22;37732;53.106;7.030;2023-05-07T10:42:14;15.20;99.90
51655;DHT22;37732;53.106;7.030;2023-05-07T10:44:40;15.30;99.90
51655;DHT22;37732;53.106;7.030;2023-05-07T10:47:07;15.30;99.90
51655;DHT22;37732;53.106;7.030;2023-05-07T10:49:36;15.40;99.90
51655;DHT22;37732;53.106;7.030;2023-05-07T10:52:18;15.40;99.90
51655;DHT22;37732;53.106;7.030;2023-05-07T10:54:44;15.50;99.90
51655;DHT22;37732;53.106;7.030;2023-05-07T10:57:32;15.50;99.90
51655;DHT22;37732;53.106;7.030;2023-05-07T10:59:58;15.50;99.90
51655;DHT22;37732;53.106;7.030;2023-05-07T11:05:26;15.80;99.90
51655;DHT22;37732;53.106;7.030;2023-05-07T11:08:00;16.10;99.90
51655;DHT22;37732;53.106;7.030;2023-05-07T11:13:14;16.30;99.90
51655;DHT22;37732;53.106;7.030;2023-05-07T11:15:50;16.40;99.90
51655;DHT22;37732;53.106;7.030;2023-05-07T11:18:17;16.50;99.90
51655;DHT22;37732;53.106;7.030;2023-05-07T11:20:47;16.50;99.90
51655;DHT22;37732;53.106;7.030;2023-05-07T11:26:04;16.60;99.90
51655;DHT22;37732;53.106;7.030;2023-05-07T11:28:32;16.70;99.90
51655;DHT22;37732;53.106;7.030;2023-05-07T11:31:02;16.80;99.90
51655;DHT22;37732;53.106;7.030;2023-05-07T11:33:29;16.90;99.90
51655;DHT22;37732;53.106;7.030;2023-05-07T11:35:56;17.00;99.90
51655;DHT22;37732;53.106;7.030;2023-05-07T11:38:22;17.10;99.90
51655;DHT22;37732;53.106;7.030;2023-05-07T11:40:53;17.10;99.90
51655;DHT22;37732;53.106;7.030;2023-05-07T11:43:19;17.10;99.90
51655;DHT22;37732;53.106;7.030;2023-05-07T11:45:45;17.00;99.90
51655;DHT22;37732;53.106;7.030;2023-05-07T11:48:13;17.10;99.90
51655;DHT22;37732;53.106;7.030;2023-05-07T11:53:28;17.00;99.90
51655;DHT22;37732;53.106;7.030;2023-05-07T11:55:55;17.10;99.90
51655;DHT22;37732;53.106;7.030;2023-05-07T11:58:24;17.40;99.90
51655;DHT22;37732;53.106;7.030;2023-05-07T12:00:54;17.60;99.90
51655;DHT22;37732;53.106;7.030;2023-05-07T12:03:23;17.70;99.90
51655;DHT22;37732;53.106;7.030;2023-05-07T12:05:48;17.70;99.90
51655;DHT22;37732;53.106;7.030;2023-05-07T12:08:19;17.60;99.90
51655;DHT22;37732;53.106;7.030;2023-05-07T12:10:47;17.60;99.90
51655;DHT22;37732;53.106;7.030;2023-05-07T12:13:23;17.60;99.90
51655;DHT22;37732;53.106;7.030;2023-05-07T12:15:52;17.60;99.90
51655;DHT22;37732;53.106;7.030;2023-05-07T12:18:18;17.60;99.90
51655;DHT22;37732;53.106;7.030;2023-05-07T12:20:45;17.70;99.90
51655;DHT22;37732;53.106;7.030;2023-05-07T12:23:11;17.70;99.90
51655;DHT22;37732;53.106;7.030;2023-05-07T12:25:42;17.70;99.90
51655;DHT22;37732;53.106;7.030;2023-05-07T12:28:14;17.70;99.90
51655;DHT22;37732;53.106;7.030;2023-05-07T12:30:42;17.50;99.90
51655;DHT22;37732;53.106;7.030;2023-05-07T12:33:08;17.50;99.90
51655;DHT22;37732;53.106;7.030;2023-05-07T12:35:39;17.50;99.90
51655;DHT22;37732;53.106;7.030;2023-05-07T12:38:11;17.40;99.90
51655;DHT22;37732;53.106;7.030;2023-05-07T12:40:46;17.40;99.90
51655;DHT22;37732;53.106;7.030;2023-05-07T12:43:25;17.50;99.90
51655;DHT22;37732;53.106;7.030;2023-05-07T12:45:53;17.60;99.90
51655;DHT22;37732;53.106;7.030;2023-05-07T12:48:20;17.50;99.90
51655;DHT22;37732;53.106;7.030;2023-05-07T12:50:59;17.60;99.90
51655;DHT22;37732;53.106;7.030;2023-05-07T12:53:26;17.70;99.90
51655;DHT22;37732;53.106;7.030;2023-05-07T12:55:57;17.90;99.90
51655;DHT22;37732;53.106;7.030;2023-05-07T12:58:27;17.90;99.90
51655;DHT22;37732;53.106;7.030;2023-05-07T13:00:53;18.00;99.90
51655;DHT22;37732;53.106;7.030;2023-05-07T13:03:28;18.00;99.90
51655;DHT22;37732;53.106;7.030;2023-05-07T13:05:58;18.00;99.90
51655;DHT22;37732;53.106;7.030;2023-05-07T13:10:58;18.20;99.90
51655;DHT22;37732;53.106;7.030;2023-05-07T13:13:25;18.20;99.90
51655;DHT22;37732;53.106;7.030;2023-05-07T13:15:51;18.30;99.90
51655;DHT22;37732;53.106;7.030;2023-05-07T13:18:17;18.40;99.90
51655;DHT22;37732;53.106;7.030;2023-05-07T13:20:43;18.50;99.90
51655;DHT22;37732;53.106;7.030;2023-05-07T13:23:09;18.60;99.90
51655;DHT22;37732;53.106;7.030;2023-05-07T13:25:34;18.60;99.90
51655;DHT22;37732;53.106;7.030;2023-05-07T13:28:00;18.70;99.90
51655;DHT22;37732;53.106;7.030;2023-05-07T13:30:26;18.70;99.90
51655;DHT22;37732;53.106;7.030;2023-05-07T13:32:55;18.80;99.90
51655;DHT22;37732;53.106;7.030;2023-05-07T13:35:21;18.90;99.90
51655;DHT22;37732;53.106;7.030;2023-05-07T13:37:47;19.00;99.90
51655;DHT22;37732;53.106;7.030;2023-05-07T13:40:15;19.20;99.90
51655;DHT22;37732;53.106;7.030;2023-05-07T13:42:41;19.20;99.90
51655;DHT22;37732;53.106;7.030;2023-05-07T13:45:07;19.30;99.90
51655;DHT22;37732;53.106;7.030;2023-05-07T13:47:33;19.40;99.90
51655;DHT22;37732;53.106;7.030;2023-05-07T13:49:59;19.40;99.90
51655;DHT22;37732;53.106;7.030;2023-05-07T13:52:25;19.40;99.90
51655;DHT22;37732;53.106;7.030;2023-05-07T13:54:51;19.30;99.90
51655;DHT22;37732;53.106;7.030;2023-05-07T13:57:18;19.30;99.90
51655;DHT22;37732;53.106;7.030;2023-05-07T13:59:43;19.40;99.90
51655;DHT22;37732;53.106;7.030;2023-05-07T14:02:09;19.50;99.90
51655;DHT22;37732;53.106;7.030;2023-05-07T14:04:36;19.70;99.90
51655;DHT22;37732;53.106;7.030;2023-05-07T14:07:03;19.70;99.90
51655;DHT22;37732;53.106;7.030;2023-05-07T14:09:29;19.70;99.90
51655;DHT22;37732;53.106;7.030;2023-05-07T14:11:55;19.70;99.90
51655;DHT22;37732;53.106;7.030;2023-05-07T14:14:21;19.70;99.90
51655;DHT22;37732;53.106;7.030;2023-05-07T14:16:46;19.60;99.90
51655;DHT22;37732;53.106;7.030;2023-05-07T14:19:12;19.50;99.90
51655;DHT22;37732;53.106;7.030;2023-05-07T14:21:38;19.50;99.90
51655;DHT22;37732;53.106;7.030;2023-05-07T14:24:06;19.50;99.90
51655;DHT22;37732;53.106;7.030;2023-05-07T14:26:32;19.50;99.90
51655;DHT22;37732;53.106;7.030;2023-05-07T14:28:58;19.60;99.90
51655;DHT22;37732;53.106;7.030;2023-05-07T14:31:24;19.60;99.90
51655;DHT22;37732;53.106;7.030;2023-05-07T14:33:50;19.60;99.90
51655;DHT22;37732;53.106;7.030;2023-05-07T14:36:16;19.70;99.90
51655;DHT22;37732;53.106;7.030;2023-05-07T14:38:43;19.60;99.90
51655;DHT22;37732;53.106;7.030;2023-05-07T14:41:08;19.70;99.90
51655;DHT22;37732;53.106;7.030;2023-05-07T14:43:34;19.50;99.90
51655;DHT22;37732;53.106;7.030;2023-05-07T14:45:59;19.50;99.90
51655;DHT22;37732;53.106;7.030;2023-05-07T14:48:25;19.40;99.90
51655;DHT22;37732;53.106;7.030;2023-05-07T14:50:51;19.30;99.90
51655;DHT22;37732;53.106;7.030;2023-05-07T14:53:16;19.40;99.90
51655;DHT22;37732;53.106;7.030;2023-05-07T14:55:42;19.40;99.90
51655;DHT22;37732;53.106;7.030;2023-05-07T14:58:08;19.50;99.90
51655;DHT22;37732;53.106;7.030;2023-05-07T15:00:33;19.40;99.90
51655;DHT22;37732;53.106;7.030;2023-05-07T15:03:06;19.50;99.90
51655;DHT22;37732;53.106;7.030;2023-05-07T15:05:32;19.70;99.90
51655;DHT22;37732;53.106;7.030;2023-05-07T15:07:58;19.80;99.90
51655;DHT22;37732;53.106;7.030;2023-05-07T15:10:24;19.90;99.90
51655;DHT22;37732;53.106;7.030;2023-05-07T15:12:50;20.10;99.90
51655;DHT22;37732;53.106;7.030;2023-05-07T15:15:16;20.20;99.90
51655;DHT22;37732;53.106;7.030;2023-05-07T15:17:42;20.20;99.90
51655;DHT22;37732;53.106;7.030;2023-05-07T15:20:08;20.00;99.90
51655;DHT22;37732;53.106;7.030;2023-05-07T15:22:35;19.80;99.90
51655;DHT22;37732;53.106;7.030;2023-05-07T15:25:03;19.60;99.90
51655;DHT22;37732;53.106;7.030;2023-05-07T15:27:30;19.50;99.90
51655;DHT22;37732;53.106;7.030;2023-05-07T15:29:56;19.30;99.90
51655;DHT22;37732;53.106;7.030;2023-05-07T15:32:22;19.30;99.90
51655;DHT22;37732;53.106;7.030;2023-05-07T15:34:48;19.10;99.90
51655;DHT22;37732;53.106;7.030;2023-05-07T15:37:13;19.10;99.90
51655;DHT22;37732;53.106;7.030;2023-05-07T15:39:39;19.00;99.90
51655;DHT22;37732;53.106;7.030;2023-05-07T15:42:05;18.90;99.90
51655;DHT22;37732;53.106;7.030;2023-05-07T15:44:30;18.80;99.90
51655;DHT22;37732;53.106;7.030;2023-05-07T15:47:01;18.70;99.90
51655;DHT22;37732;53.106;7.030;2023-05-07T15:49:26;18.70;99.90
51655;DHT22;37732;53.106;7.030;2023-05-07T15:51:53;18.70;99.90